Main page
METAR-TAF:

METAR-TAF

Airports :

Amsterdam Airport Schiphol

Amsterdam, Netherlands

latitude: 52-18N, longitude: 004-46E, elevation: -4 m

Current weather observation

The report was made 39 minutes ago, at 11:55 UTC
Wind 6 kt from the Southeast, varying between East and South
Temperature 30°C
Humidity 35%
Pressure 1019 hPa
Visibility 10 km or more
no clouds below 1500 m and no cumulonimbus

METAR: EHAM 251155Z 14006KT 090V180 CAVOK 30/13 Q1019 NOSIG

Time: 14:34 (12:34 UTC)

Forecast

The report was made 1 hour and 34 minutes ago, at 11:00 UTC
Forecast valid from 25 at 12 UTC to 26 at 18 UTC
Wind 7 kt from the East
Visibility 10 km or more
no clouds below 1500 m and no cumulonimbus

TAF: EHAM 251100Z 2512/2618 10007KT CAVOK

Weather observations and forecasts of more than 4000 airports (METAR and TAF reports).

The available stations are represented by yellow and red dots on the map.

Hover mouse over dot to see the name of the station.

Then click to see weather observations and forecasts.

To change the map : click on the green buttons with a black cross to zoom in, on the green button with a dash to zoom out, or on the green arrows for adjacent maps.


METAR-TAF: